Time;durP1;ratioP1;P1;durP2;ratioP2;P2;SDS_P1;SDS_P2;PMS_P1;PMS_P2;Temp;Humidity;BMP_temperature;BMP_pressure;BME280_temperature;BME280_humidity;BME280_pressure;Samples;Min_cycle;Max_cycle;Signal;HPM_P1;HPM_P2
2023/01/04 00:02:16;;;;;;;39.00;18.05;;;;;;;;;;12841062;19;20387;-65
2023/01/04 00:06:34;;;;;;;51.40;22.63;;;;;;;;;;12842052;19;20498;-65
2023/01/04 00:10:51;;;;;;;59.87;24.83;;;;;;;;;;12842161;19;20473;-65
2023/01/04 00:15:09;;;;;;;150.05;46.75;;;;;;;;;;12840364;19;20010;-66
2023/01/04 00:19:27;;;;;;;95.65;34.28;;;;;;;;;;12843069;19;20382;-65
2023/01/04 00:23:48;;;;;;;52.50;21.90;;;;;;;;;;12841180;19;20446;-65
2023/01/04 00:28:06;;;;;;;48.42;21.17;;;;;;;;;;12840507;19;20433;-65
2023/01/04 00:32:23;;;;;;;56.53;24.60;;;;;;;;;;12840933;19;20017;-65
2023/01/04 00:36:41;;;;;;;116.33;39.80;;;;;;;;;;12840700;19;20383;-66
2023/01/04 00:41:00;;;;;;;70.82;26.45;;;;;;;;;;12839370;19;20339;-65
2023/01/04 00:45:17;;;;;;;176.65;58.95;;;;;;;;;;12837566;19;20430;-65
2023/01/04 00:49:35;;;;;;;114.28;39.05;;;;;;;;;;12841579;19;20477;-64
2023/01/04 00:53:52;;;;;;;80.57;32.28;;;;;;;;;;12837883;19;20409;-66
2023/01/04 00:58:11;;;;;;;35.95;17.73;;;;;;;;;;12838011;19;20355;-65
2023/01/04 01:02:28;;;;;;;34.28;17.55;;;;;;;;;;12837019;19;20532;-64
2023/01/04 01:06:47;;;;;;;43.05;20.67;;;;;;;;;;12837485;19;20361;-65
2023/01/04 01:11:09;;;;;;;45.63;21.35;;;;;;;;;;12837807;19;20409;-66
2023/01/04 01:15:26;;;;;;;58.53;24.77;;;;;;;;;;12839775;19;20502;-65
2023/01/04 01:19:44;;;;;;;58.37;24.13;;;;;;;;;;12836638;19;20295;-65
2023/01/04 01:24:02;;;;;;;66.18;28.85;;;;;;;;;;12836815;19;20425;-65
2023/01/04 01:28:20;;;;;;;39.53;19.95;;;;;;;;;;12837485;19;20425;-65
2023/01/04 01:32:37;;;;;;;33.73;15.97;;;;;;;;;;12838574;19;20473;-66
2023/01/04 01:36:56;;;;;;;29.80;14.82;;;;;;;;;;12838033;19;20584;-65
2023/01/04 01:41:28;;;;;;;31.38;16.83;;;;;;;;;;12835882;19;20434;-65
2023/01/04 01:45:51;;;;;;;35.03;17.52;;;;;;;;;;12837063;19;20441;-65
2023/01/04 01:50:30;;;;;;;46.67;19.70;;;;;;;;;;12836474;19;20560;-65
2023/01/04 01:54:55;;;;;;;45.80;18.83;;;;;;;;;;12836326;19;20483;-64
2023/01/04 01:59:14;;;;;;;37.35;16.80;;;;;;;;;;12833288;19;20324;-65
2023/01/04 02:03:37;;;;;;;;;;;;;;;;;;12837161;19;20295;-64
2023/01/04 02:07:55;;;;;;;44.33;18.02;;;;;;;;;;12833210;19;20289;-66
2023/01/04 02:12:13;;;;;;;37.75;17.63;;;;;;;;;;12834545;19;20287;-66
2023/01/04 02:17:04;;;;;;;45.10;20.63;;;;;;;;;;12844065;19;20438;-65
2023/01/04 02:21:49;;;;;;;82.78;31.23;;;;;;;;;;12847224;19;20510;-65
2023/01/04 02:26:59;;;;;;;43.55;19.52;;;;;;;;;;12844514;19;20306;-66
2023/01/04 02:31:46;;;;;;;48.63;20.38;;;;;;;;;;12846322;19;20023;-66
2023/01/04 02:36:38;;;;;;;116.93;45.65;;;;;;;;;;12846878;19;20411;-64
2023/01/04 02:41:11;;;;;;;40.20;18.50;;;;;;;;;;12846230;19;20461;-66
2023/01/04 02:45:40;;;;;;;35.65;17.15;;;;;;;;;;8814774;19;10001463;-65
2023/01/04 02:50:43;;;;;;;;;;;;;;;;;;12844355;19;20014;-65
2023/01/04 02:54:36;;;;;;;35.00;17.07;;;;;;;;;;12846071;19;20239;-65
2023/01/04 02:59:25;;;;;;;31.20;15.68;;;;;;;;;;12843680;19;20078;-64
2023/01/04 03:09:20;;;;;;;35.25;18.00;;;;;;;;;;12842815;19;20403;-64
2023/01/04 03:13:44;;;;;;;33.50;17.80;;;;;;;;;;12844533;19;20411;-65
2023/01/04 03:18:28;;;;;;;48.42;24.60;;;;;;;;;;12843844;19;20355;-67
2023/01/04 03:37:08;;;;;;;40.05;20.45;;;;;;;;;;12842271;19;20250;-64
2023/01/04 03:50:57;;;;;;;40.75;18.98;;;;;;;;;;12842749;19;20304;-65
2023/01/04 03:55:17;;;;;;;42.38;20.50;;;;;;;;;;12840328;19;20509;-64
2023/01/04 03:59:44;;;;;;;41.47;21.45;;;;;;;;;;12843450;19;20347;-65
2023/01/04 04:08:38;;;;;;;41.13;19.85;;;;;;;;;;12842671;19;20487;-66
2023/01/04 04:12:56;;;;;;;35.08;19.25;;;;;;;;;;12842623;19;20010;-65
2023/01/04 04:17:13;;;;;;;68.40;30.40;;;;;;;;;;12841386;19;20347;-66
2023/01/04 04:21:31;;;;;;;50.87;23.00;;;;;;;;;;12841300;19;20051;-65
2023/01/04 04:25:48;;;;;;;36.08;19.13;;;;;;;;;;12841286;19;20434;-66
2023/01/04 04:30:07;;;;;;;36.13;19.80;;;;;;;;;;12840268;19;20395;-65
2023/01/04 04:34:24;;;;;;;35.15;20.38;;;;;;;;;;12839992;19;20457;-66
2023/01/04 04:38:42;;;;;;;64.87;30.67;;;;;;;;;;12840755;19;20472;-65
2023/01/04 04:43:00;;;;;;;33.03;17.92;;;;;;;;;;12840247;19;20363;-66
2023/01/04 04:47:17;;;;;;;37.90;19.92;;;;;;;;;;12839240;19;20347;-65
2023/01/04 04:51:36;;;;;;;33.67;17.00;;;;;;;;;;12839783;19;20498;-65
2023/01/04 04:55:54;;;;;;;35.33;18.80;;;;;;;;;;12839210;19;20501;-65
2023/01/04 05:00:12;;;;;;;35.50;18.65;;;;;;;;;;12839100;19;20322;-66
2023/01/04 05:04:30;;;;;;;36.08;17.77;;;;;;;;;;12838449;19;20477;-66
2023/01/04 05:08:48;;;;;;;37.30;21.40;;;;;;;;;;12838383;19;20513;-67
2023/01/04 05:13:07;;;;;;;39.08;20.85;;;;;;;;;;12837767;19;20367;-66
2023/01/04 05:17:25;;;;;;;41.33;23.50;;;;;;;;;;12838361;19;20510;-65
2023/01/04 05:21:43;;;;;;;34.70;18.77;;;;;;;;;;12837908;19;20354;-65
2023/01/04 05:26:02;;;;;;;36.30;18.77;;;;;;;;;;12837606;19;20493;-65
2023/01/04 05:34:56;;;;;;;33.22;18.25;;;;;;;;;;12837182;19;20027;-65
2023/01/04 05:39:13;;;;;;;35.78;19.52;;;;;;;;;;12836602;19;20482;-65
2023/01/04 05:43:31;;;;;;;46.70;23.60;;;;;;;;;;12836996;19;20010;-65
2023/01/04 05:47:51;;;;;;;47.35;21.40;;;;;;;;;;12836721;19;20385;-65
2023/01/04 05:52:09;;;;;;;52.72;24.20;;;;;;;;;;12845376;19;20368;-66
2023/01/04 05:56:27;;;;;;;41.13;21.92;;;;;;;;;;12849201;19;20710;-69
2023/01/04 06:00:45;;;;;;;40.95;20.73;;;;;;;;;;12848666;19;20379;-67
2023/01/04 06:05:03;;;;;;;39.08;20.67;;;;;;;;;;12847779;19;20074;-66
2023/01/04 06:09:20;;;;;;;43.13;20.45;;;;;;;;;;12846797;19;20372;-66
2023/01/04 06:13:37;;;;;;;43.67;22.63;;;;;;;;;;12848061;19;20469;-66
2023/01/04 06:17:55;;;;;;;38.53;19.63;;;;;;;;;;12846189;19;20448;-65
2023/01/04 06:22:13;;;;;;;45.97;21.33;;;;;;;;;;12845713;19;20385;-66
2023/01/04 06:26:31;;;;;;;44.03;22.42;;;;;;;;;;12847509;19;20360;-65
2023/01/04 06:30:48;;;;;;;52.15;25.30;;;;;;;;;;12846710;19;20370;-65
2023/01/04 06:35:06;;;;;;;51.72;24.52;;;;;;;;;;12846134;19;20488;-66
2023/01/04 06:39:24;;;;;;;51.25;25.08;;;;;;;;;;12846921;19;20461;-65
2023/01/04 06:43:42;;;;;;;46.00;22.20;;;;;;;;;;12846260;19;20372;-65
2023/01/04 06:47:59;;;;;;;55.65;25.10;;;;;;;;;;12845401;19;20359;-65
2023/01/04 06:52:25;;;;;;;49.40;24.80;;;;;;;;;;12848770;19;20608;-65
2023/01/04 06:56:43;;;;;;;56.88;26.77;;;;;;;;;;12845916;19;20426;-67
2023/01/04 07:01:00;;;;;;;45.30;23.08;;;;;;;;;;12845817;19;20019;-65
2023/01/04 07:05:18;;;;;;;46.20;23.67;;;;;;;;;;12841601;19;20379;-68
2023/01/04 07:09:36;;;;;;;50.27;24.47;;;;;;;;;;12842701;19;20441;-66
2023/01/04 07:13:53;;;;;;;47.77;22.47;;;;;;;;;;12844777;19;20031;-66
2023/01/04 07:18:11;;;;;;;48.17;24.25;;;;;;;;;;12843584;19;20010;-66
2023/01/04 07:22:29;;;;;;;52.05;24.83;;;;;;;;;;12844502;19;20518;-65
2023/01/04 07:26:47;;;;;;;50.03;25.33;;;;;;;;;;12844448;19;20373;-65
2023/01/04 07:31:07;;;;;;;48.13;23.33;;;;;;;;;;12842622;19;20486;-66
2023/01/04 07:35:25;;;;;;;43.65;21.98;;;;;;;;;;12844780;19;21130;-65
2023/01/04 07:39:43;;;;;;;45.05;23.35;;;;;;;;;;12841807;19;20010;-65
2023/01/04 07:44:01;;;;;;;45.92;23.13;;;;;;;;;;12842931;19;20433;-66
2023/01/04 07:48:18;;;;;;;40.42;23.00;;;;;;;;;;12842260;19;20029;-66
2023/01/04 07:52:37;;;;;;;63.80;28.42;;;;;;;;;;12843170;19;20025;-65
2023/01/04 07:56:55;;;;;;;46.83;24.38;;;;;;;;;;12842928;19;20413;-65
2023/01/04 08:01:16;;;;;;;51.13;24.30;;;;;;;;;;12841086;19;20486;-65
2023/01/04 08:05:34;;;;;;;52.13;26.00;;;;;;;;;;12842371;19;20007;-65
2023/01/04 08:09:52;;;;;;;65.73;30.43;;;;;;;;;;12841208;19;20478;-65
2023/01/04 08:14:10;;;;;;;62.22;26.55;;;;;;;;;;12839129;19;20314;-66
2023/01/04 08:18:28;;;;;;;;;;;;;;;;;;12842407;19;20291;-66
2023/01/04 08:22:45;;;;;;;54.80;24.63;;;;;;;;;;12841393;19;20293;-65
2023/01/04 08:27:03;;;;;;;54.03;27.65;;;;;;;;;;12840062;19;20486;-66
2023/01/04 08:31:25;;;;;;;55.20;28.00;;;;;;;;;;12839926;19;20027;-66
2023/01/04 08:35:43;;;;;;;69.22;29.83;;;;;;;;;;12840542;19;20758;-64
2023/01/04 08:40:01;;;;;;;67.60;33.33;;;;;;;;;;12840122;19;20355;-65
2023/01/04 08:44:24;;;;;;;61.80;31.92;;;;;;;;;;12838925;19;20441;-64
2023/01/04 08:48:42;;;;;;;53.33;27.77;;;;;;;;;;12840208;19;20389;-64
2023/01/04 08:53:00;;;;;;;40.65;21.33;;;;;;;;;;12840441;19;20517;-64
2023/01/04 08:57:18;;;;;;;37.40;21.87;;;;;;;;;;12836836;19;20351;-64
2023/01/04 09:01:36;;;;;;;51.83;25.70;;;;;;;;;;12839707;19;20502;-65
2023/01/04 09:06:00;;;;;;;47.38;23.92;;;;;;;;;;12838628;19;20481;-65
2023/01/04 09:10:18;;;;;;;53.55;25.15;;;;;;;;;;12835829;19;20036;-65
2023/01/04 09:14:36;;;;;;;48.67;25.17;;;;;;;;;;12838651;19;20490;-65
2023/01/04 09:18:54;;;;;;;47.47;25.75;;;;;;;;;;12838761;19;20588;-66
2023/01/04 09:23:11;;;;;;;50.47;30.73;;;;;;;;;;12835833;19;20402;-65
2023/01/04 09:27:33;;;;;;;44.30;23.13;;;;;;;;;;12835955;19;20494;-65
2023/01/04 09:31:50;;;;;;;42.50;22.05;;;;;;;;;;12835032;19;20019;-64
2023/01/04 09:36:14;;;;;;;40.17;19.30;;;;;;;;;;12836777;19;20506;-65
2023/01/04 09:40:59;;;;;;;34.15;19.00;;;;;;;;;;12836654;19;20521;-65
2023/01/04 09:45:25;;;;;;;34.92;18.98;;;;;;;;;;12834738;19;20477;-65
2023/01/04 09:49:59;;;;;;;30.02;18.38;;;;;;;;;;12834611;19;20465;-65
2023/01/04 09:54:20;;;;;;;40.30;20.67;;;;;;;;;;12838823;19;20474;-66
2023/01/04 09:58:40;;;;;;;33.58;18.90;;;;;;;;;;12834729;19;20359;-66
2023/01/04 10:03:16;;;;;;;32.92;18.00;;;;;;;;;;12834048;19;20010;-65
2023/01/04 10:07:34;;;;;;;38.00;18.10;;;;;;;;;;12835509;19;20015;-65
2023/01/04 10:12:27;;;;;;;40.45;19.10;;;;;;;;;;12557955;19;5000955;-65
2023/01/04 10:17:28;;;;;;;37.10;19.13;;;;;;;;;;12837459;19;20502;-65
2023/01/04 10:22:52;;;;;;;27.42;15.93;;;;;;;;;;12832975;19;20493;-65
2023/01/04 10:27:47;;;;;;;28.08;14.27;;;;;;;;;;12831542;19;20366;-66
2023/01/04 10:32:32;;;;;;;57.13;24.40;;;;;;;;;;12834975;19;20019;-66
2023/01/04 10:36:58;;;;;;;43.47;22.40;;;;;;;;;;12839934;19;20490;-66
2023/01/04 10:41:23;;;;;;;45.42;23.75;;;;;;;;;;12843891;19;20306;-65
2023/01/04 10:46:05;;;;;;;22.65;12.50;;;;;;;;;;12847280;19;20366;-64
2023/01/04 10:50:43;;;;;;;50.80;24.98;;;;;;;;;;12843904;19;20393;-65
2023/01/04 10:55:37;;;;;;;66.97;31.42;;;;;;;;;;12844004;19;20026;-65
2023/01/04 11:00:16;;;;;;;69.30;29.60;;;;;;;;;;12848788;19;20328;-65
2023/01/04 11:04:45;;;;;;;52.92;30.25;;;;;;;;;;12844273;19;20444;-65
2023/01/04 11:09:16;;;;;;;28.75;14.88;;;;;;;;;;12844858;19;20425;-65
2023/01/04 11:13:41;;;;;;;31.92;17.05;;;;;;;;;;12845484;19;20656;-64
2023/01/04 11:18:04;;;;;;;24.37;16.70;;;;;;;;;;12843375;19;20468;-64
2023/01/04 11:22:53;;;;;;;20.80;10.48;;;;;;;;;;12842686;19;20481;-64
2023/01/04 11:27:17;;;;;;;18.63;11.10;;;;;;;;;;12841760;19;20441;-64
2023/01/04 11:32:01;;;;;;;16.95;10.63;;;;;;;;;;12843878;19;20102;-65
2023/01/04 11:36:44;;;;;;;15.25;9.20;;;;;;;;;;12842313;19;20396;-65
2023/01/04 11:41:07;;;;;;;15.93;9.02;;;;;;;;;;12843233;19;20066;-66
2023/01/04 11:45:26;;;;;;;19.85;8.90;;;;;;;;;;12843325;19;20469;-64
2023/01/04 11:49:45;;;;;;;17.20;9.43;;;;;;;;;;12841086;19;20340;-65
2023/01/04 11:54:04;;;;;;;;;;;;;;;;;;12843014;19;20083;-66
2023/01/04 11:58:26;;;;;;;17.63;8.43;;;;;;;;;;12842917;19;19934;-64
2023/01/04 12:02:44;;;;;;;22.73;12.77;;;;;;;;;;12844867;19;20343;-65
2023/01/04 12:07:32;;;;;;;18.02;8.45;;;;;;;;;;12841680;19;20434;-64
2023/01/04 12:11:56;;;;;;;15.73;8.55;;;;;;;;;;12840395;19;20448;-65
2023/01/04 12:16:30;;;;;;;14.68;6.75;;;;;;;;;;12840875;19;20386;-65
2023/01/04 12:20:47;;;;;;;9.68;5.50;;;;;;;;;;12839564;19;20350;-66
2023/01/04 12:25:34;;;;;;;10.85;5.72;;;;;;;;;;12839787;19;20015;-65
2023/01/04 12:30:02;;;;;;;30.23;13.02;;;;;;;;;;12840411;19;20368;-65
2023/01/04 12:34:24;;;;;;;51.22;22.92;;;;;;;;;;12840571;19;20453;-65
2023/01/04 12:38:51;;;;;;;10.82;5.70;;;;;;;;;;12841057;19;20015;-64
2023/01/04 12:43:14;;;;;;;17.08;9.38;;;;;;;;;;12839359;19;20365;-67
2023/01/04 12:52:12;;;;;;;14.50;8.07;;;;;;;;;;12838905;19;20383;-66
2023/01/04 12:57:24;;;;;;;12.75;7.07;;;;;;;;;;12840218;19;20378;-65
2023/01/04 13:02:18;;;;;;;13.77;7.05;;;;;;;;;;12836811;19;20388;-64
2023/01/04 13:06:43;;;;;;;16.15;6.63;;;;;;;;;;12838625;19;20375;-64
2023/01/04 13:11:04;;;;;;;21.15;10.05;;;;;;;;;;12837019;19;20406;-65
2023/01/04 13:15:54;;;;;;;16.98;11.45;;;;;;;;;;12838113;19;20355;-64
2023/01/04 13:20:20;;;;;;;17.63;8.25;;;;;;;;;;12835073;19;20437;-65
2023/01/04 13:24:43;;;;;;;13.82;8.48;;;;;;;;;;12836370;19;20350;-65
2023/01/04 13:29:29;;;;;;;15.40;6.55;;;;;;;;;;12838871;19;20425;-65
2023/01/04 13:33:47;;;;;;;13.00;6.43;;;;;;;;;;12837596;19;20489;-65
2023/01/04 13:38:14;;;;;;;11.07;7.13;;;;;;;;;;12836376;19;20024;-65
2023/01/04 13:42:45;;;;;;;14.55;7.43;;;;;;;;;;12838567;19;20331;-64
2023/01/04 13:47:04;;;;;;;15.13;8.55;;;;;;;;;;12834695;19;20426;-65
2023/01/04 13:51:35;;;;;;;17.50;8.45;;;;;;;;;;12836319;19;20514;-64
2023/01/04 13:56:02;;;;;;;11.85;6.50;;;;;;;;;;12836725;19;20482;-64
2023/01/04 14:00:20;;;;;;;12.82;5.80;;;;;;;;;;12838026;19;20338;-65
2023/01/04 14:04:41;;;;;;;19.98;8.13;;;;;;;;;;12834311;19;20323;-66
2023/01/04 14:09:12;;;;;;;17.45;7.00;;;;;;;;;;12834798;19;20493;-65
2023/01/04 14:13:30;;;;;;;22.83;9.65;;;;;;;;;;12844879;19;20469;-65
2023/01/04 14:17:55;;;;;;;23.77;10.20;;;;;;;;;;12847611;19;20465;-66
2023/01/04 14:22:21;;;;;;;20.75;10.05;;;;;;;;;;12847033;19;20525;-65
2023/01/04 14:26:40;;;;;;;51.15;24.00;;;;;;;;;;12846649;19;20520;-65
2023/01/04 14:30:58;;;;;;;45.10;21.98;;;;;;;;;;12847144;19;20014;-65
2023/01/04 14:35:16;;;;;;;43.75;21.38;;;;;;;;;;12846429;19;20306;-65
2023/01/04 14:39:34;;;;;;;37.15;16.85;;;;;;;;;;12846223;19;20486;-65
2023/01/04 14:44:12;;;;;;;34.47;18.73;;;;;;;;;;12844450;19;20363;-66
2023/01/04 14:48:30;;;;;;;22.23;10.95;;;;;;;;;;12844342;19;20461;-65
2023/01/04 14:52:52;;;;;;;16.25;7.68;;;;;;;;;;12846142;19;20127;-66
2023/01/04 14:57:13;;;;;;;15.55;9.18;;;;;;;;;;12844740;19;20512;-65
2023/01/04 15:01:31;;;;;;;24.60;12.75;;;;;;;;;;12845263;19;20505;-65
2023/01/04 15:05:49;;;;;;;16.10;8.98;;;;;;;;;;12844107;19;20486;-65
2023/01/04 15:10:23;;;;;;;11.53;5.37;;;;;;;;;;12843800;19;20343;-67
2023/01/04 15:14:40;;;;;;;13.75;7.18;;;;;;;;;;12844032;19;20020;-66
2023/01/04 15:18:58;;;;;;;11.67;6.43;;;;;;;;;;12844530;19;20309;-66
2023/01/04 15:23:16;;;;;;;12.20;6.10;;;;;;;;;;12840687;19;20295;-66
2023/01/04 15:27:33;;;;;;;15.03;7.63;;;;;;;;;;12844064;19;20773;-65
2023/01/04 15:31:58;;;;;;;8.55;4.75;;;;;;;;;;12844565;19;20363;-65
2023/01/04 15:36:20;;;;;;;13.05;7.07;;;;;;;;;;12845627;19;20754;-65
2023/01/04 15:40:40;;;;;;;9.98;6.38;;;;;;;;;;12843446;19;20434;-65
2023/01/04 15:44:59;;;;;;;11.32;5.57;;;;;;;;;;12841951;19;20489;-65
2023/01/04 15:49:16;;;;;;;8.82;4.32;;;;;;;;;;12843046;19;20580;-64
2023/01/04 15:53:34;;;;;;;12.68;6.30;;;;;;;;;;12843355;19;20347;-66
2023/01/04 15:57:52;;;;;;;10.60;6.05;;;;;;;;;;12842112;19;20472;-65
2023/01/04 16:02:10;;;;;;;41.20;13.30;;;;;;;;;;12841120;19;20478;-67
2023/01/04 16:06:28;;;;;;;;;;;;;;;;;;12842295;19;20355;-65
2023/01/04 16:10:46;;;;;;;17.60;7.10;;;;;;;;;;12841405;19;20265;-65
2023/01/04 16:15:04;;;;;;;74.65;23.77;;;;;;;;;;12840495;19;20494;-65
2023/01/04 16:19:23;;;;;;;12.85;6.50;;;;;;;;;;12843547;19;20449;-66
2023/01/04 16:23:40;;;;;;;25.45;12.95;;;;;;;;;;12841034;19;20457;-67
2023/01/04 16:27:58;;;;;;;112.75;48.80;;;;;;;;;;12840534;19;20011;-65
2023/01/04 16:32:16;;;;;;;23.07;12.43;;;;;;;;;;12840203;19;20310;-65
2023/01/04 16:36:34;;;;;;;14.35;7.97;;;;;;;;;;12838773;19;20015;-65
2023/01/04 16:41:00;;;;;;;14.52;8.57;;;;;;;;;;12838584;19;20470;-66
2023/01/04 16:45:19;;;;;;;14.80;7.22;;;;;;;;;;12839998;19;20464;-66
2023/01/04 16:49:36;;;;;;;9.85;5.90;;;;;;;;;;12840881;19;20472;-66
2023/01/04 16:53:54;;;;;;;19.87;11.33;;;;;;;;;;12839101;19;20363;-65
2023/01/04 16:58:12;;;;;;;18.77;11.52;;;;;;;;;;12835851;19;20504;-65
2023/01/04 17:02:29;;;;;;;23.90;14.80;;;;;;;;;;12836323;19;20367;-66
2023/01/04 17:06:48;;;;;;;22.10;11.50;;;;;;;;;;12837480;19;20050;-66
2023/01/04 17:11:10;;;;;;;24.80;13.45;;;;;;;;;;12837971;19;20445;-65
2023/01/04 17:15:47;;;;;;;27.05;15.35;;;;;;;;;;12837201;19;20502;-66
2023/01/04 17:20:08;;;;;;;17.73;8.23;;;;;;;;;;12837436;19;20609;-67
2023/01/04 17:24:26;;;;;;;17.20;8.85;;;;;;;;;;12761416;19;20475;-65
2023/01/04 17:28:44;;;;;;;23.63;11.70;;;;;;;;;;12835484;19;20359;-65
2023/01/04 17:33:01;;;;;;;25.23;12.23;;;;;;;;;;12837127;19;20098;-68
2023/01/04 17:37:19;;;;;;;29.87;12.30;;;;;;;;;;12835461;19;20074;-65
2023/01/04 17:41:37;;;;;;;26.70;12.07;;;;;;;;;;12758537;19;20396;-65
2023/01/04 17:46:03;;;;;;;18.23;9.35;;;;;;;;;;12833168;19;20379;-65
2023/01/04 17:50:22;;;;;;;23.83;12.98;;;;;;;;;;12837315;19;20793;-65
2023/01/04 17:54:40;;;;;;;15.25;8.40;;;;;;;;;;12836831;19;20056;-68
2023/01/04 17:59:02;;;;;;;16.23;7.68;;;;;;;;;;12836587;19;20350;-64
2023/01/04 18:03:20;;;;;;;12.85;7.53;;;;;;;;;;12839212;19;20056;-64
2023/01/04 18:07:38;;;;;;;15.73;8.98;;;;;;;;;;12834790;19;20510;-64
2023/01/04 18:11:56;;;;;;;16.37;8.30;;;;;;;;;;12834843;19;20103;-64
2023/01/04 18:16:23;;;;;;;14.82;7.82;;;;;;;;;;12835548;19;20024;-65
2023/01/04 18:20:41;;;;;;;19.10;10.40;;;;;;;;;;12835296;19;20356;-64
2023/01/04 18:25:05;;;;;;;17.52;8.70;;;;;;;;;;12833783;19;20371;-67
2023/01/04 18:29:27;;;;;;;18.27;8.63;;;;;;;;;;12832691;19;20503;-65
2023/01/04 18:33:52;;;;;;;16.03;8.50;;;;;;;;;;12832968;19;20481;-65
2023/01/04 18:38:10;;;;;;;18.98;11.32;;;;;;;;;;12831499;19;20789;-67
2023/01/04 18:42:29;;;;;;;17.00;7.30;;;;;;;;;;12834073;19;20665;-64
2023/01/04 18:46:47;;;;;;;12.27;5.97;;;;;;;;;;12833950;19;20477;-65
2023/01/04 18:51:09;;;;;;;8.73;5.20;;;;;;;;;;12836159;19;20473;-65
2023/01/04 18:55:26;;;;;;;10.73;6.47;;;;;;;;;;12832490;19;20381;-65
2023/01/04 18:59:48;;;;;;;11.63;6.15;;;;;;;;;;12339165;19;10001967;-65
2023/01/04 19:04:06;;;;;;;9.65;4.57;;;;;;;;;;12845409;19;20355;-66
2023/01/04 19:08:25;;;;;;;26.20;13.32;;;;;;;;;;12848004;19;20002;-65
2023/01/04 19:12:43;;;;;;;15.30;7.82;;;;;;;;;;12844912;19;20015;-66
2023/01/04 19:17:01;;;;;;;17.50;8.20;;;;;;;;;;12847117;19;20294;-65
2023/01/04 19:21:19;;;;;;;8.37;5.03;;;;;;;;;;12843303;19;20364;-65
2023/01/04 19:25:40;;;;;;;7.93;4.22;;;;;;;;;;12843483;19;20011;-65
2023/01/04 19:29:58;;;;;;;6.75;3.17;;;;;;;;;;12843682;19;20351;-65
2023/01/04 19:34:15;;;;;;;8.93;4.53;;;;;;;;;;12841415;19;20385;-66
2023/01/04 19:38:33;;;;;;;6.70;4.35;;;;;;;;;;12846494;19;20422;-64
2023/01/04 19:42:51;;;;;;;12.90;5.40;;;;;;;;;;12843999;19;20014;-64
2023/01/04 19:47:09;;;;;;;6.97;3.85;;;;;;;;;;12841401;19;20692;-64
2023/01/04 19:51:27;;;;;;;26.15;11.45;;;;;;;;;;12842681;19;20473;-64
2023/01/04 19:55:46;;;;;;;27.17;10.98;;;;;;;;;;12842316;19;20364;-65
2023/01/04 20:00:06;;;;;;;18.90;9.02;;;;;;;;;;12841746;19;20473;-64
2023/01/04 20:04:26;;;;;;;38.10;15.95;;;;;;;;;;12841925;19;20591;-67
2023/01/04 20:08:44;;;;;;;26.10;11.52;;;;;;;;;;12839946;19;20104;-66
2023/01/04 20:13:01;;;;;;;29.88;12.13;;;;;;;;;;12841402;19;20380;-66
2023/01/04 20:17:19;;;;;;;41.33;14.93;;;;;;;;;;12841133;19;20379;-65
2023/01/04 20:21:37;;;;;;;26.43;10.13;;;;;;;;;;12842082;19;20477;-66
2023/01/04 20:25:55;;;;;;;28.77;12.43;;;;;;;;;;12841559;19;20537;-65
2023/01/04 20:30:12;;;;;;;30.03;12.17;;;;;;;;;;12839620;19;20014;-65
2023/01/04 20:34:31;;;;;;;12.80;6.43;;;;;;;;;;12841028;19;20380;-64
2023/01/04 20:38:49;;;;;;;23.38;8.88;;;;;;;;;;12839840;19;20461;-65
2023/01/04 20:47:44;;;;;;;6.35;3.47;;;;;;;;;;12838799;19;20384;-65
2023/01/04 20:52:01;;;;;;;20.90;7.83;;;;;;;;;;12838221;19;20376;-65
2023/01/04 20:56:25;;;;;;;20.17;8.45;;;;;;;;;;12837780;19;20383;-66
2023/01/04 21:00:45;;;;;;;10.65;4.32;;;;;;;;;;12839251;19;20391;-65
2023/01/04 21:05:03;;;;;;;16.92;8.27;;;;;;;;;;12837176;19;20425;-65
2023/01/04 21:09:20;;;;;;;13.48;6.38;;;;;;;;;;12838283;19;20485;-65
2023/01/04 21:13:39;;;;;;;7.77;3.83;;;;;;;;;;12837678;19;20532;-67
2023/01/04 21:17:56;;;;;;;10.70;3.83;;;;;;;;;;12836699;19;20430;-67
2023/01/04 21:22:14;;;;;;;11.70;6.55;;;;;;;;;;12842370;19;20489;-66
2023/01/04 21:26:31;;;;;;;7.40;3.53;;;;;;;;;;12839260;19;20379;-65
2023/01/04 21:30:49;;;;;;;6.25;2.83;;;;;;;;;;12838980;19;20371;-65
2023/01/04 21:35:07;;;;;;;13.85;8.88;;;;;;;;;;12834280;19;20310;-66
2023/01/04 21:39:25;;;;;;;;;;;;;;;;;;12838183;19;20413;-66
2023/01/04 21:43:43;;;;;;;9.10;5.80;;;;;;;;;;12837359;19;20354;-65
2023/01/04 21:48:00;;;;;;;7.23;4.87;;;;;;;;;;12836454;19;20360;-66
2023/01/04 21:52:18;;;;;;;8.67;5.00;;;;;;;;;;12837213;19;20367;-66
2023/01/04 21:56:37;;;;;;;7.43;4.13;;;;;;;;;;12837166;19;20591;-66
2023/01/04 22:00:55;;;;;;;5.80;3.45;;;;;;;;;;12836323;19;20486;-65
2023/01/04 22:05:13;;;;;;;6.57;3.78;;;;;;;;;;12834642;19;20442;-66
2023/01/04 22:09:31;;;;;;;7.60;3.60;;;;;;;;;;12835866;19;20015;-65
2023/01/04 22:13:49;;;;;;;5.63;4.07;;;;;;;;;;12835364;19;20824;-66
2023/01/04 22:18:06;;;;;;;7.10;3.13;;;;;;;;;;12832313;19;20434;-65
2023/01/04 22:44:50;;;;;;;4.65;2.85;;;;;;;;;;12872706;19;20718;-65
2023/01/04 22:49:09;;;;;;;10.17;3.20;;;;;;;;;;12873709;19;20014;-69
2023/01/04 22:53:26;;;;;;;6.45;3.45;;;;;;;;;;12871916;19;20476;-71
2023/01/04 22:57:44;;;;;;;4.38;2.60;;;;;;;;;;12873602;19;20432;-66
2023/01/04 23:02:01;;;;;;;5.87;2.33;;;;;;;;;;12875972;19;20421;-70
2023/01/04 23:06:20;;;;;;;6.33;3.17;;;;;;;;;;12873838;19;20508;-66
2023/01/04 23:10:37;;;;;;;4.10;2.33;;;;;;;;;;12872953;19;20329;-67
2023/01/04 23:14:55;;;;;;;4.65;2.60;;;;;;;;;;12873735;19;20475;-65
2023/01/04 23:19:13;;;;;;;6.80;2.43;;;;;;;;;;12875306;19;20378;-66
2023/01/04 23:23:31;;;;;;;4.63;2.30;;;;;;;;;;12872049;19;20512;-66
2023/01/04 23:27:49;;;;;;;;;;;;;;;;;;12873432;19;20321;-66
2023/01/04 23:32:06;;;;;;;4.70;2.28;;;;;;;;;;12873527;19;20658;-70
2023/01/04 23:36:32;;;;;;;2.57;1.47;;;;;;;;;;12874954;19;20432;-65
2023/01/04 23:40:49;;;;;;;7.20;2.67;;;;;;;;;;12872165;19;20047;-65
2023/01/04 23:45:07;;;;;;;3.40;2.22;;;;;;;;;;12829637;19;20022;-71
2023/01/04 23:49:27;;;;;;;3.72;2.25;;;;;;;;;;12821444;19;20381;-66
2023/01/04 23:53:44;;;;;;;3.13;1.77;;;;;;;;;;12817171;19;20360;-66
2023/01/04 23:58:02;;;;;;;3.25;1.90;;;;;;;;;;12821261;19;20696;-66
